アラート の空港の天気 - METARとTAF

Alert Airport ( CYLT / YLT ) - カナダ ヌナブト準州アラート
飛行場実況気象(Metar)
観測時間05/29 13:31 EDT (05/29 17:31 UTC)
風向・風速北北東 5m/s
視程6450m
天気現象弱い雪 もや
少しの雲 雲底高度 150m
全天を覆う雲 雲底高度 460m
気温-2℃
湿度93%
気圧1018.8hPa
METARCYLT 291731Z 02010KT 4SM -SN BR FEW005 OVC015 M02/M03 A3008 RMK ST2SC6 VIS VRB 3-7 SLP188
過去の天気等 Google飛行場航空写真 Wunderground天気予報

過去48時間のMETAR

飛行場予報(TAF)
発表時間: 5/29 13:37 EDT (5/29 17:37 UTC)
予報対象時間: 29日14時 EDT ~ 30日2時 EDT
風向・風速北 6m/s
視程6440m
天気現象弱い雪
全天の4割程度の雲 雲底高度 180m
全天を覆う雲 雲底高度 760m
29日14時 EDT ~ 30日2時 EDT に一時的に
視程1610m
天気現象弱い雪 もや
全天を覆う雲 雲底高度 180m
TAF AMD CYLT 291737Z 2918/3006 01012KT 4SM -SN SCT006 OVC025
TEMPO 2918/3006 1SM -SN BR OVC006 RMK NXT FCST BY 300000Z